ADDS METAR Data INFO
IDs: Format: Raw Decoded Include TAF

Data at: 1206 UTC 21 Jun 2018

KASN 211155Z AUTO 00000KT 10SM SCT040 SCT048 24/24 A2992 RMK AO2 LTG DSNT NW T02390235 10247 20235
KASN 211135Z AUTO 00000KT 10SM SCT050 SCT060 24/24 A2992 RMK AO2 LTG DSNT N AND NW T02400236
KASN 211115Z AUTO 00000KT 10SM SCT041 SCT060 24/23 A2991 RMK AO2 LTG DSNT N AND NW T02360232
KASN 211055Z AUTO 00000KT 10SM CLR 24/23 A2991 RMK AO2 LTG DSNT N T02360229
KASN 211035Z AUTO 00000KT 10SM CLR 24/23 A2990 RMK AO2 LTG DSNT W T02350231
KASN 211015Z AUTO 00000KT 10SM CLR 24/23 A2990 RMK AO2 LTG DSNT W AND NW T02390230
KASN 210955Z AUTO 00000KT 10SM CLR 24/23 A2990 RMK AO2 T02370232
KASN 210935Z AUTO 00000KT 10SM VCTS CLR 24/23 A2990 RMK AO2 LTG DSNT NW T02380233
KASN 210915Z AUTO 00000KT 10SM CLR 24/23 A2990 RMK AO2 LTG DSNT N T02380233
KASN 210855Z AUTO 00000KT 10SM TS CLR 24/24 A2990 RMK AO2 LTG DSNT N T02370235
KASN 210835Z AUTO 00000KT 10SM CLR 24/24 A2990 RMK AO2 T02370235
KASN 210815Z AUTO 00000KT 10SM CLR 24/24 A2990 RMK AO2 LTG DSNT N AND NW T02400236
KASN 210755Z AUTO 00000KT 10SM CLR 24/24 A2991 RMK AO2 LTG DSNT NW T02400237
KASN 210735Z AUTO 00000KT 10SM CLR 24/24 A2991 RMK AO2 T02400238
KASN 210715Z AUTO 00000KT 10SM CLR 24/24 A2992 RMK AO2 LTG DSNT N T02410238
KASN 210655Z AUTO 00000KT 10SM CLR 24/24 A2992 RMK AO2 T02400236
KASN 210635Z AUTO 00000KT 10SM CLR 25/24 A2992 RMK AO2 LTG DSNT NW T02460241
KASN 210615Z AUTO 00000KT 10SM CLR 25/24 A2993 RMK AO2 T02470240
KASN 210555Z AUTO 00000KT 10SM CLR 25/24 A2993 RMK AO2 T02480241 10318 20248 403420205
KASN 210535Z AUTO 00000KT 10SM CLR 25/24 A2994 RMK AO2 T02500242
KASN 210515Z AUTO 00000KT 10SM CLR 25/24 A2994 RMK AO2 T02530240
KASN 210455Z AUTO 00000KT 10SM CLR 26/24 A2995 RMK AO2 T02550241
KASN 210435Z AUTO 00000KT 10SM CLR 26/24 A2995 RMK AO2 T02590240
KASN 210415Z AUTO 00000KT 10SM CLR 26/24 A2995 RMK AO2 T02620240
KASN 210355Z AUTO 00000KT 10SM CLR 26/24 A2995 RMK AO2 T02620239
KASN 210335Z AUTO 00000KT 10SM CLR 27/24 A2995 RMK AO2 T02710240
KASN 210315Z AUTO 00000KT 7SM CLR 27/24 A2995 RMK AO2 T02660241
KASN 210255Z AUTO 00000KT 10SM CLR 27/24 A2995 RMK AO2 T02660243
KASN 210235Z AUTO 00000KT 10SM CLR 27/24 A2994 RMK AO2 T02690235
KASN 210215Z AUTO 00000KT 10SM CLR 27/24 A2994 RMK AO2 T02690235
KASN 210155Z AUTO 00000KT 10SM CLR 28/24 A2993 RMK AO2 T02760244
KASN 210135Z AUTO 00000KT 10SM CLR 27/23 A2992 RMK AO2 T02740233
KASN 210115Z AUTO 00000KT 10SM CLR 28/23 A2992 RMK AO2 T02790231
KASN 210055Z AUTO 00000KT 10SM CLR 31/22 A2992 RMK AO2 T03050215
KASN 210035Z AUTO 00000KT 10SM CLR 31/22 A2992 RMK AO2 T03060217
KASN 210015Z AUTO 32005KT 10SM CLR 31/21 A2992 RMK AO2 T03140206
KASN 202355Z AUTO 30004KT 10SM CLR 32/21 A2991 RMK AO2 T03180208 10342 20317
KASN 202335Z AUTO 29006KT 10SM SCT060 32/20 A2991 RMK AO2 T03230201
KASN 202315Z AUTO 00000KT 10SM BKN060 BKN080 32/21 A2991 RMK AO2 LTG DSNT W T03200214
KASN 202255Z AUTO 00000KT 10SM BKN060 BKN070 OVC080 32/21 A2990 RMK AO2 T03180214
KASN 202235Z AUTO 00000KT 10SM BKN060 BKN070 33/20 A2991 RMK AO2 T03300196
KASN 202215Z AUTO 27003KT 10SM BKN060 33/20 A2991 RMK AO2 T03310197
KASN 202155Z AUTO 31004KT 10SM SCT060 33/20 A2991 RMK AO2 T03320199
KASN 202135Z AUTO 00000KT 10SM BKN060 BKN070 32/20 A2992 RMK AO2 LTG DSNT N T03240203
KASN 202115Z AUTO 23005KT 10SM OVC060 33/20 A2993 RMK AO2 T03330196
KASN 202055Z AUTO 04003KT 10SM BKN060 BKN070 34/21 A2993 RMK AO2 T03370208
KASN 202035Z AUTO 26005KT 10SM SCT060 34/20 A2993 RMK AO2 T03360197
KASN 202015Z AUTO 25005KT 10SM SCT060 SCT075 SCT090 34/19 A2994 RMK AO2 T03380194
KASN 201955Z AUTO 24007KT 10SM SCT060 34/20 A2995 RMK AO2 T03390198
KASN 201935Z AUTO 24004KT 10SM SCT060 34/20 A2996 RMK AO2 T03360196
KASN 201915Z AUTO 25008KT 10SM SCT060 33/20 A2996 RMK AO2 T03340196
KASN 201855Z AUTO 21006KT 10SM SCT060 33/20 A2997 RMK AO2 T03320200
KASN 201835Z AUTO 21007KT 10SM CLR 33/20 A2997 RMK AO2 T03310202
KASN 201815Z AUTO 00000KT 10SM SCT060 33/20 A2998 RMK AO2 T03270196
KASN 201755Z AUTO 20004KT 10SM CLR 33/20 A2998 RMK AO2 T03270199 10327 20217
KASN 201735Z AUTO 32003KT 10SM CLR 32/19 A2999 RMK AO2 T03240193
KASN 201715Z AUTO 10003KT 10SM CLR 32/20 A2999 RMK AO2 T03210195
KASN 201655Z AUTO 03003KT 10SM CLR 32/19 A3000 RMK AO2 T03170190
KASN 201635Z AUTO 04003KT 10SM CLR 32/19 A3000 RMK AO2 T03150191
KASN 201615Z AUTO 04004KT 10SM CLR 31/20 A3001 RMK AO2 T03120202
KASN 201555Z AUTO 35003KT 10SM CLR 31/20 A3001 RMK AO2 T03070203
KASN 201535Z AUTO 05003KT 10SM CLR 30/22 A3001 RMK AO2 T03010217
KASN 201515Z AUTO 00000KT 10SM CLR 30/22 A3001 RMK AO2 T02980224
KASN 201455Z AUTO 00000KT 10SM CLR 29/22 A3001 RMK AO2 T02920224
KASN 201435Z AUTO 00000KT 10SM CLR 28/22 A3001 RMK AO2 T02800223
KASN 201415Z AUTO 00000KT 10SM SCT120 28/23 A3001 RMK AO2 T02780227
KASN 201355Z AUTO 00000KT 10SM SCT120 27/23 A3001 RMK AO2 T02710225
KASN 201335Z AUTO 00000KT 10SM CLR 27/23 A3002 RMK AO2 T02700228
KASN 201315Z AUTO 00000KT 10SM CLR 25/23 A3001 RMK AO2 T02530225
KASN 201255Z AUTO 00000KT 10SM CLR 24/23 A3001 RMK AO2 T02420225
KASN 201235Z AUTO 00000KT 10SM CLR 23/22 A3001 RMK AO2 T02330222
KASN 201215Z AUTO 00000KT 10SM CLR 23/22 A3001 RMK AO2 T02260218
KASN 201155Z AUTO 00000KT 10SM CLR 22/22 A3000 RMK AO2 T02170215 10231 20205
KASN 201135Z AUTO 00000KT 10SM CLR 21/21 A3000 RMK AO2 T02100210
KASN 201115Z AUTO 00000KT 10SM CLR 21/21 A3000 RMK AO2 T02070207
KASN 201055Z AUTO 00000KT 10SM CLR 21/21 A3000 RMK AO2 T02070206
KASN 201035Z AUTO 00000KT 10SM CLR 21/21 A2999 RMK AO2 T02100210
KASN 201015Z AUTO 00000KT 10SM CLR 21/21 A2999 RMK AO2 T02100210
KASN 200955Z AUTO 00000KT 10SM CLR 21/21 A2998 RMK AO2 T02080208
KASN 200935Z AUTO 00000KT 10SM CLR 21/21 A2998 RMK AO2 T02110211
KASN 200915Z AUTO 00000KT 7SM CLR 22/22 A2999 RMK AO2 T02150215
KASN 200855Z AUTO 00000KT 10SM CLR 22/22 A2999 RMK AO2 T02180218
KASN 200835Z AUTO 00000KT 10SM CLR 22/22 A2999 RMK AO2 T02160216
KASN 200815Z AUTO 00000KT 10SM CLR 22/22 A2999 RMK AO2 T02180218
KASN 200755Z AUTO 00000KT 10SM CLR 22/22 A3000 RMK AO2 T02200220
KASN 200735Z AUTO 00000KT 7SM CLR 23/23 A3000 RMK AO2 T02250225
KASN 200715Z AUTO 00000KT 7SM CLR 22/22 A3000 RMK AO2 T02230221
KASN 200655Z AUTO 00000KT 10SM CLR 23/23 A3000 RMK AO2 T02250225
KASN 200635Z AUTO 00000KT 10SM CLR 23/23 A3000 RMK AO2 T02310230
KASN 200615Z AUTO 00000KT 10SM CLR 23/23 A3001 RMK AO2 T02300228
KASN 200555Z AUTO 00000KT 10SM CLR 23/23 A3000 RMK AO2 T02300229 10310 20230 403410210
KASN 200535Z AUTO 00000KT 10SM CLR 23/23 A3001 RMK AO2 T02340231
KASN 200515Z AUTO 00000KT 10SM CLR 23/23 A3001 RMK AO2 T02320230
KASN 200455Z AUTO 00000KT 10SM CLR 24/23 A3001 RMK AO2 T02360232
KASN 200435Z AUTO 00000KT 10SM CLR 24/23 A3001 RMK AO2 T02360232
KASN 200415Z AUTO 00000KT 10SM CLR 24/23 A3001 RMK AO2 T02360232
KASN 200355Z AUTO 00000KT 10SM CLR 25/24 A3001 RMK AO2 T02450235
KASN 200335Z AUTO 00000KT 10SM CLR 24/24 A3001 RMK AO2 T02420236
KASN 200315Z AUTO 00000KT 10SM CLR 25/24 A3001 RMK AO2 T02500238
KASN 200255Z AUTO 00000KT 10SM CLR 25/23 A3000 RMK AO2 T02490231
KASN 200235Z AUTO 00000KT 10SM CLR 26/23 A3000 RMK AO2 T02560231
KASN 200215Z AUTO 00000KT 10SM CLR 26/23 A2999 RMK AO2 T02610230
KASN 200155Z AUTO 00000KT 10SM CLR 26/23 A2999 RMK AO2 T02620231
KASN 200135Z AUTO 00000KT 10SM CLR 27/23 A2999 RMK AO2 T02660232
KASN 200115Z AUTO 00000KT 10SM CLR 29/22 A2998 RMK AO2 T02930223
KASN 200055Z AUTO 00000KT 10SM CLR 30/22 A2998 RMK AO2 T02980220
KASN 200035Z AUTO 32003KT 10SM CLR 30/22 A2998 RMK AO2 LTG DSNT N T03030220
KASN 200015Z AUTO 32006KT 10SM CLR 31/22 A2998 RMK AO2 LTG DSNT S T03060219